Time;durP1;ratioP1;P1;durP2;ratioP2;P2;SDS_P1;SDS_P2;PMS_P1;PMS_P2;Temp;Humidity;BMP_temperature;BMP_pressure;BME280_temperature;BME280_humidity;BME280_pressure;Samples;Min_cycle;Max_cycle;Signal;HPM_P1;HPM_P2
2023/05/08 00:01:15;;;;;;;;;16.50;15.50;;;;;18.08;62.78;101537.06;4916356;28;45346;-63
2023/05/08 00:03:41;;;;;;;;;17.00;17.00;;;;;18.05;62.85;101531.94;4916161;28;45279;-62
2023/05/08 00:06:06;;;;;;;;;13.25;12.75;;;;;18.02;62.63;101523.03;4914925;28;45592;-62
2023/05/08 00:08:32;;;;;;;;;12.75;12.75;;;;;18.00;62.67;101519.63;4915789;28;46918;-62
2023/05/08 00:10:58;;;;;;;;;14.25;11.00;;;;;18.01;62.44;101534.38;4930661;28;45217;-62
2023/05/08 00:13:23;;;;;;;;;14.00;11.00;;;;;17.98;62.70;101538.47;4930794;28;45778;-62
2023/05/08 00:15:48;;;;;;;;;12.00;11.75;;;;;17.95;62.69;101527.00;4930722;28;45247;-63
2023/05/08 00:18:15;;;;;;;;;13.75;12.00;;;;;17.93;62.49;101529.19;4914123;28;48284;-62
2023/05/08 00:20:40;;;;;;;;;17.00;13.20;;;;;17.89;62.50;101529.66;4915980;28;45441;-63
2023/05/08 00:23:06;;;;;;;;;13.00;13.00;;;;;17.92;62.85;101533.88;4916045;28;45413;-61
2023/05/08 00:25:32;;;;;;;;;12.25;11.25;;;;;17.73;62.65;101522.91;4916105;28;45457;-62
2023/05/08 00:27:58;;;;;;;;;16.00;14.50;;;;;17.60;63.48;101528.69;4915623;28;46682;-62
2023/05/08 00:30:23;;;;;;;;;15.60;11.60;;;;;17.66;63.54;101518.56;4915794;28;45464;-62
2023/05/08 00:32:49;;;;;;;;;12.00;12.00;;;;;17.60;63.12;101501.78;4914516;28;45382;-61
2023/05/08 00:35:14;;;;;;;;;15.00;14.00;;;;;17.71;63.10;101522.31;4929776;28;45537;-62
2023/05/08 00:37:40;;;;;;;;;9.50;9.50;;;;;17.68;62.74;101496.97;4930441;28;48238;-61
2023/05/08 00:40:08;;;;;;;;;12.20;11.40;;;;;17.72;62.79;101515.66;5025694;28;45368;-61
2023/05/08 00:42:33;;;;;;;;;15.60;11.40;;;;;17.72;62.83;101514.84;5016206;28;45340;-62
2023/05/08 00:44:59;;;;;;;;;13.00;13.00;;;;;17.78;62.67;101511.09;5016387;28;45563;-62
2023/05/08 00:47:25;;;;;;;;;12.75;11.25;;;;;17.80;62.52;101520.03;5015816;28;45439;-63
2023/05/08 00:49:50;;;;;;;;;10.80;9.40;;;;;17.76;62.27;101510.47;5014504;28;45299;-64
2023/05/08 00:52:16;;;;;;;;;13.75;12.75;;;;;17.69;62.56;101498.66;5015859;28;45286;-63
2023/05/08 00:54:41;;;;;;;;;13.50;13.50;;;;;17.79;62.44;101511.94;5016113;28;45436;-64
2023/05/08 00:57:07;;;;;;;;;15.75;14.25;;;;;17.75;62.71;101511.56;5016175;28;46135;-63
2023/05/08 00:59:33;;;;;;;;;12.75;12.75;;;;;17.67;62.75;101507.22;5015367;28;45420;-62
2023/05/08 01:01:59;;;;;;;;;14.60;13.80;;;;;17.66;62.71;101502.75;5016243;28;45571;-61
2023/05/08 01:04:25;;;;;;;;;14.80;13.80;;;;;17.69;62.27;101504.19;5047664;28;45413;-61
2023/05/08 01:06:50;;;;;;;;;15.25;12.75;;;;;17.61;62.55;101491.56;5014434;28;45380;-62
2023/05/08 01:09:16;;;;;;;;;9.25;8.25;;;;;17.66;62.37;101502.75;5015799;28;45424;-62
2023/05/08 01:11:55;;;;;;;;;16.00;15.00;;;;;17.56;62.64;101505.31;5014333;28;45441;-62
2023/05/08 01:14:21;;;;;;;;;12.40;10.20;;;;;17.51;62.82;101499.63;5047766;28;45553;-62
2023/05/08 01:17:13;;;;;;;;;12.60;12.20;;;;;17.43;62.81;101498.91;5015080;28;46430;-62
2023/05/08 01:19:59;;;;;;;;;12.40;12.00;;;;;17.47;62.61;101510.34;5015327;28;45263;-62
2023/05/08 01:22:53;;;;;;;;;15.20;11.00;;;;;17.43;62.99;101512.75;5030594;28;45272;-62
2023/05/08 01:25:55;;;;;;;;;14.80;12.40;;;;;17.46;62.80;101514.22;5015729;28;45310;-62
2023/05/08 01:28:38;;;;;;;;;15.80;14.60;;;;;17.43;63.16;101521.09;5047489;28;46141;-62
2023/05/08 01:31:10;;;;;;;;;12.40;12.00;;;;;17.39;62.85;101525.41;5015161;28;45430;-61
2023/05/08 01:33:42;;;;;;;;;12.00;11.60;;;;;17.30;62.77;101524.09;5047641;28;45845;-61
2023/05/08 01:36:17;;;;;;;;;16.20;15.60;;;;;17.19;63.27;101525.75;5015357;28;45322;-62
2023/05/08 01:39:01;;;;;;;;;15.00;12.80;;;;;17.19;63.51;101521.03;5032444;28;45788;-63
2023/05/08 01:41:29;;;;;;;;;13.60;12.20;;;;;17.19;63.52;101517.44;4911827;28;49048;-63
2023/05/08 01:44:14;;;;;;;;;13.40;11.40;;;;;17.22;63.61;101516.13;4945952;28;45349;-62
2023/05/08 01:46:40;;;;;;;;;15.40;15.40;;;;;17.22;63.21;101524.44;4959282;28;45423;-62
2023/05/08 01:49:09;;;;;;;;;17.50;14.00;;;;;17.09;63.37;101517.16;4946280;28;47583;-63
2023/05/08 01:51:46;;;;;;;;;18.60;15.80;;;;;17.10;63.66;101518.84;4931534;28;45374;-63
2023/05/08 01:54:14;;;;;;;;;13.60;11.40;;;;;17.09;63.78;101522.69;4963312;28;45371;-63
2023/05/08 01:56:41;;;;;;;;;15.60;15.40;;;;;17.17;63.83;101520.44;4964603;28;45684;-62
2023/05/08 01:59:08;;;;;;;;;19.00;16.40;;;;;17.20;63.59;101514.41;4931295;28;45812;-62
2023/05/08 02:01:33;;;;;;;;;14.20;14.00;;;;;17.25;63.61;101526.72;4932807;28;45549;-63
2023/05/08 02:03:59;;;;;;;;;13.50;13.50;;;;;17.23;63.61;101515.84;4964953;28;45843;-62
2023/05/08 02:06:24;;;;;;;;;16.25;16.25;;;;;17.27;63.22;101519.84;4964933;28;45577;-61
2023/05/08 02:08:50;;;;;;;;;17.50;16.50;;;;;17.28;63.62;101513.22;4933874;28;45939;-62
2023/05/08 02:11:15;;;;;;;;;16.50;14.50;;;;;17.22;63.51;101521.66;4964580;28;45455;-63
2023/05/08 02:13:41;;;;;;;;;14.50;14.50;;;;;17.13;63.93;101529.47;4965281;28;45316;-63
2023/05/08 02:16:07;;;;;;;;;18.40;15.40;;;;;17.19;63.62;101532.13;4933727;28;45555;-62
2023/05/08 02:18:33;;;;;;;;;14.60;13.20;;;;;17.18;63.66;101530.44;4934106;28;45979;-63
2023/05/08 02:20:58;;;;;;;;;18.00;17.00;;;;;17.27;63.55;101539.28;4948488;28;45309;-62
2023/05/08 02:23:25;;;;;;;;;16.00;14.75;;;;;17.28;63.42;101532.63;4948370;28;45389;-62
2023/05/08 02:25:51;;;;;;;;;18.20;16.60;;;;;17.27;63.40;101527.31;4964699;28;45492;-62
2023/05/08 02:28:16;;;;;;;;;26.25;18.00;;;;;17.25;63.30;101526.72;4933263;28;46521;-62
2023/05/08 02:30:42;;;;;;;;;18.25;15.50;;;;;17.20;63.45;101524.66;4964265;28;45367;-62
2023/05/08 02:33:08;;;;;;;;;22.00;18.75;;;;;17.12;63.70;101533.34;4964342;28;45388;-62
2023/05/08 02:35:34;;;;;;;;;21.20;18.80;;;;;16.91;63.86;101514.19;4964210;28;45544;-63
2023/05/08 02:37:59;;;;;;;;;20.75;20.00;;;;;17.01;63.61;101534.94;4964532;28;46248;-62
2023/05/08 02:40:26;;;;;;;;;18.75;18.75;;;;;16.99;64.06;101537.97;4948452;28;45731;-62
2023/05/08 02:42:52;;;;;;;;;18.60;17.80;;;;;16.93;63.90;101536.97;4944881;28;45324;-62
2023/05/08 02:45:17;;;;;;;;;21.00;21.00;;;;;16.90;63.75;101523.59;4913967;28;45279;-62
2023/05/08 02:48:00;;;;;;;;;19.25;19.25;;;;;16.79;64.25;101522.47;4928388;28;45528;-62
2023/05/08 02:50:33;;;;;;;;;24.20;21.40;;;;;16.84;64.15;101532.84;4913472;28;45299;-63
2023/05/08 02:53:03;;;;;;;;;18.60;17.40;;;;;16.77;64.22;101534.88;4944685;28;45579;-62
2023/05/08 02:55:32;;;;;;;;;21.80;20.40;;;;;16.72;64.29;101534.72;4928518;28;45262;-61
2023/05/08 02:58:07;;;;;;;;;21.40;21.40;;;;;16.60;64.39;101526.34;4947528;28;46182;-61
2023/05/08 03:00:56;;;;;;;;;23.80;20.20;;;;;16.66;64.24;101530.97;4916280;28;45322;-61
2023/05/08 03:03:24;;;;;;;;;24.20;22.80;;;;;16.59;64.44;101533.81;4955195;28;45541;-61
2023/05/08 03:05:54;;;;;;;;;22.80;19.80;;;;;16.54;64.47;101530.88;4947212;28;45614;-61
2023/05/08 03:08:29;;;;;;;;;22.60;20.60;;;;;16.45;65.11;101523.97;4915103;28;46197;-62
2023/05/08 03:10:57;;;;;;;;;25.60;22.80;;;;;16.50;64.66;101530.50;4947292;28;45441;-62
2023/05/08 03:13:23;;;;;;;;;27.00;23.00;;;;;16.57;64.99;101524.03;4947045;28;45443;-61
2023/05/08 03:15:54;;;;;;;;;24.75;22.00;;;;;16.55;64.47;101524.28;4931126;28;45500;-61
2023/05/08 03:18:21;;;;;;;;;23.40;22.80;;;;;16.56;64.73;101514.88;4931291;28;45384;-61
2023/05/08 03:20:48;;;;;;;;;29.20;26.40;;;;;16.51;64.97;101520.28;4946487;28;45373;-61
2023/05/08 03:23:15;;;;;;;;;23.40;22.60;;;;;16.55;64.87;101523.44;4947283;28;45240;-61
2023/05/08 03:25:41;;;;;;;;;21.60;21.00;;;;;16.61;64.98;101514.19;4916231;28;45537;-61
2023/05/08 03:28:07;;;;;;;;;23.50;23.50;;;;;16.63;64.49;101520.31;4946647;28;46218;-61
2023/05/08 03:30:35;;;;;;;;;23.00;20.75;;;;;16.53;64.61;101515.34;4946589;28;45529;-61
2023/05/08 03:33:00;;;;;;;;;21.60;20.60;;;;;16.51;64.45;101529.44;4946696;28;45441;-59
2023/05/08 03:35:26;;;;;;;;;25.00;22.50;;;;;16.48;64.53;101523.50;4947290;28;45534;-61
2023/05/08 03:37:52;;;;;;;;;27.75;24.75;;;;;16.30;64.88;101524.38;4927850;28;45615;-61
2023/05/08 03:40:17;;;;;;;;;26.20;23.60;;;;;16.17;65.16;101526.22;5018187;28;45396;-61
2023/05/08 03:42:43;;;;;;;;;22.50;20.50;;;;;16.21;65.11;101533.00;5048427;28;45359;-61
2023/05/08 03:45:09;;;;;;;;;33.75;25.50;;;;;16.18;65.14;101521.53;5017115;28;45306;-61
2023/05/08 03:47:34;;;;;;;;;26.00;24.25;;;;;16.19;65.19;101526.00;5048751;28;46332;-61
2023/05/08 03:50:00;;;;;;;;;33.00;26.25;;;;;16.22;65.34;101523.59;5016606;28;45382;-61
2023/05/08 03:52:25;;;;;;;;;31.25;27.50;;;;;16.19;65.52;101526.00;5032004;28;45216;-63
2023/05/08 03:54:51;;;;;;;;;29.75;26.50;;;;;16.12;65.18;101504.75;5017068;28;45508;-63
2023/05/08 03:57:16;;;;;;;;;29.50;23.25;;;;;16.26;65.18;101527.63;5016658;28;47314;-62
2023/05/08 04:00:05;;;;;;;;;22.50;22.50;;;;;16.30;64.98;101524.38;5048658;28;45250;-60
2023/05/08 04:02:39;;;;;;;;;28.00;25.20;;;;;16.30;64.54;101528.00;5045587;28;45230;-60
2023/05/08 04:05:29;;;;;;;;;29.40;27.60;;;;;16.23;64.85;101536.38;5048443;28;45902;-63
2023/05/08 04:08:16;;;;;;;;;25.40;24.20;;;;;16.18;64.85;101522.38;5044816;28;45230;-60
2023/05/08 04:10:45;;;;;;;;;30.00;26.00;;;;;16.15;64.60;101524.75;5016198;28;45375;-60
2023/05/08 04:13:14;;;;;;;;;29.60;23.60;;;;;16.10;64.23;101520.75;5048283;28;45432;-61
2023/05/08 04:15:50;;;;;;;;;29.60;23.40;;;;;16.17;64.17;101506.00;5048580;28;45363;-63
2023/05/08 04:18:17;;;;;;;;;33.60;28.20;;;;;16.30;64.24;101518.81;5030717;28;45743;-62
2023/05/08 04:20:45;;;;;;;;;30.80;25.60;;;;;16.19;64.29;101503.84;5047678;28;45351;-64
2023/05/08 04:23:10;;;;;;;;;34.00;27.60;;;;;16.19;64.21;101501.91;5015045;28;45436;-62
2023/05/08 04:25:36;;;;;;;;;35.50;27.75;;;;;16.17;64.20;101495.75;5016588;28;45302;-62
2023/05/08 04:28:02;;;;;;;;;24.50;24.25;;;;;16.25;63.85;101501.00;5047862;28;45573;-63
2023/05/08 04:30:27;;;;;;;;;22.00;21.50;;;;;16.25;63.79;101508.44;5047940;28;45310;-63
2023/05/08 04:32:53;;;;;;;;;31.00;26.75;;;;;16.35;64.02;101511.53;5016070;28;45428;-63
2023/05/08 04:35:19;;;;;;;;;24.00;23.00;;;;;16.36;63.88;101518.75;5015735;28;45560;-62
2023/05/08 04:37:44;;;;;;;;;25.25;24.75;;;;;16.30;63.39;101508.59;5015546;28;45365;-63
2023/05/08 04:40:10;;;;;;;;;26.75;25.00;;;;;16.24;63.70;101512.31;4989292;28;45383;-63
2023/05/08 04:42:37;;;;;;;;;26.25;22.75;;;;;16.14;64.00;101515.59;4915725;28;45367;-63
2023/05/08 04:45:03;;;;;;;;;28.40;26.80;;;;;16.10;64.47;101518.00;4945534;28;45444;-64
2023/05/08 04:47:28;;;;;;;;;27.60;23.20;;;;;16.09;63.93;101502.47;4930096;28;45464;-64
2023/05/08 04:49:54;;;;;;;;;24.75;22.50;;;;;16.28;63.84;101516.31;4915961;28;45324;-63
2023/05/08 04:52:19;;;;;;;;;24.00;21.50;;;;;16.25;63.44;101514.00;4914958;28;45429;-65
2023/05/08 04:54:45;;;;;;;;;19.25;18.00;;;;;16.18;63.87;101516.00;4946424;28;45347;-62
2023/05/08 04:57:10;;;;;;;;;25.50;22.25;;;;;16.08;64.38;101519.28;4945977;28;46098;-62
2023/05/08 04:59:36;;;;;;;;;20.25;18.25;;;;;16.02;64.19;101522.97;4930094;28;45493;-63
2023/05/08 05:02:01;;;;;;;;;25.50;21.50;;;;;15.99;64.12;101524.28;4914965;28;45373;-62
2023/05/08 05:04:27;;;;;;;;;25.50;22.00;;;;;15.97;64.64;101513.44;4915516;28;45567;-62
2023/05/08 05:06:53;;;;;;;;;23.20;21.80;;;;;16.13;64.01;101519.47;4929773;28;46318;-62
2023/05/08 05:09:19;;;;;;;;;21.50;21.00;;;;;16.16;63.96;101518.97;4913593;28;45452;-63
2023/05/08 05:11:44;;;;;;;;;23.25;19.25;;;;;16.26;63.90;101529.53;4945831;28;45199;-64
2023/05/08 05:14:10;;;;;;;;;25.50;21.75;;;;;16.30;63.37;101533.53;4915475;28;45356;-63
2023/05/08 05:16:35;;;;;;;;;24.50;23.00;;;;;16.39;63.52;101540.44;4914776;28;46329;-63
2023/05/08 05:19:01;;;;;;;;;22.50;20.00;;;;;16.45;63.27;101548.91;4914513;28;45674;-64
2023/05/08 05:21:26;;;;;;;;;22.75;20.25;;;;;16.35;62.93;101555.84;4914727;28;45334;-63
2023/05/08 05:23:52;;;;;;;;;19.50;17.75;;;;;16.32;63.06;101556.31;4946140;28;45652;-64
2023/05/08 05:26:17;;;;;;;;;19.25;18.00;;;;;16.33;63.11;101555.22;4945410;28;45727;-64
2023/05/08 05:28:43;;;;;;;;;23.25;20.25;;;;;16.33;63.06;101549.69;4914811;28;45432;-64
2023/05/08 05:31:09;;;;;;;;;21.75;20.50;;;;;16.34;63.15;101559.69;4946212;28;45382;-64
2023/05/08 05:33:34;;;;;;;;;26.00;23.00;;;;;16.37;63.24;101556.47;4914713;28;45427;-63
2023/05/08 05:36:00;;;;;;;;;21.00;17.75;;;;;16.46;63.10;101572.75;4915059;28;45739;-64
2023/05/08 05:38:26;;;;;;;;;23.00;19.00;;;;;16.24;62.90;101542.75;4914657;28;45331;-61
2023/05/08 05:40:51;;;;;;;;;25.25;22.25;;;;;16.47;62.63;101575.31;5025270;28;45475;-65
2023/05/08 05:43:17;;;;;;;;;18.50;18.50;;;;;16.47;62.35;101575.31;5015290;28;45487;-64
2023/05/08 05:45:42;;;;;;;;;17.75;15.00;;;;;16.39;62.38;101562.59;5046178;28;45987;-63
2023/05/08 05:48:08;;;;;;;;;18.00;18.00;;;;;16.28;62.94;101555.09;5014899;28;45319;-64
2023/05/08 05:50:33;;;;;;;;;20.75;19.25;;;;;16.36;62.92;101565.00;5014566;28;45767;-64
2023/05/08 05:52:59;;;;;;;;;20.50;17.50;;;;;16.43;62.68;101578.78;5046656;28;45431;-64
2023/05/08 05:55:25;;;;;;;;;20.25;16.00;;;;;16.43;62.68;101573.25;5014469;28;45362;-64
2023/05/08 05:57:51;;;;;;;;;16.50;14.75;;;;;16.49;62.36;101575.91;5046483;28;45314;-64
2023/05/08 06:00:16;;;;;;;;;22.00;19.25;;;;;16.52;62.48;101575.47;5014937;28;45389;-63
2023/05/08 06:02:42;;;;;;;;;17.50;16.00;;;;;16.44;62.44;101578.53;5014276;28;45508;-64
2023/05/08 06:05:08;;;;;;;;;17.00;14.50;;;;;16.43;62.51;101578.78;5014413;28;45417;-64
2023/05/08 06:07:34;;;;;;;;;18.00;18.00;;;;;16.44;62.40;101594.31;5045997;28;45472;-63
2023/05/08 06:10:00;;;;;;;;;17.00;14.50;;;;;16.40;62.75;101583.69;5046330;28;45497;-62
2023/05/08 06:12:27;;;;;;;;;21.25;19.75;;;;;16.55;62.28;101592.69;5046704;28;45487;-64
2023/05/08 06:14:52;;;;;;;;;18.60;15.40;;;;;16.57;62.15;101585.84;5046313;28;48135;-64
2023/05/08 06:17:18;;;;;;;;;20.00;18.00;;;;;16.69;62.06;101601.72;5013159;28;45340;-65
2023/05/08 06:19:49;;;;;;;;;17.50;16.50;;;;;16.69;62.18;101587.84;5014359;28;45269;-64
2023/05/08 06:22:17;;;;;;;;;19.20;18.00;;;;;16.76;61.94;101597.75;5014702;28;45436;-64
2023/05/08 06:24:43;;;;;;;;;18.60;17.20;;;;;16.75;61.86;101596.06;5045051;28;45461;-62
2023/05/08 06:27:09;;;;;;;;;19.75;18.00;;;;;16.79;61.78;101600.09;5014406;28;45334;-63
2023/05/08 06:29:34;;;;;;;;;18.60;18.20;;;;;16.79;61.96;101599.22;5013181;28;45380;-63
2023/05/08 06:32:00;;;;;;;;;18.75;18.00;;;;;16.87;61.87;101600.84;5016356;28;45448;-63
2023/05/08 06:34:25;;;;;;;;;22.50;19.50;;;;;16.92;61.77;101598.22;5049294;28;47677;-64
2023/05/08 06:36:51;;;;;;;;;23.00;16.75;;;;;16.89;61.71;101606.97;5049677;28;45388;-64
2023/05/08 06:39:17;;;;;;;;;17.00;17.00;;;;;16.87;62.29;101606.38;5006825;28;45497;-62
2023/05/08 06:41:45;;;;;;;;;23.00;16.00;;;;;16.85;62.01;101594.69;4916853;28;45423;-63
2023/05/08 06:44:11;;;;;;;;;16.20;14.80;;;;;16.91;61.87;101594.59;4916990;28;45645;-64
2023/05/08 06:46:36;;;;;;;;;15.75;14.25;;;;;16.85;62.16;101600.22;4917375;28;45306;-63
2023/05/08 06:49:02;;;;;;;;;21.25;18.25;;;;;16.92;61.86;101599.03;4916604;28;45394;-63
2023/05/08 06:51:27;;;;;;;;;18.25;17.00;;;;;16.82;62.08;101609.84;4915996;28;45303;-63
2023/05/08 06:53:53;;;;;;;;;15.00;15.00;;;;;16.88;62.21;101608.06;4915754;28;45428;-64
2023/05/08 06:56:18;;;;;;;;;18.25;15.00;;;;;16.93;61.86;101611.81;4917296;28;45273;-64
2023/05/08 06:58:44;;;;;;;;;20.00;17.50;;;;;16.92;61.35;101606.53;4915894;28;45302;-64
2023/05/08 07:01:09;;;;;;;;;20.00;17.25;;;;;16.86;61.58;101613.84;4931897;28;45445;-64
2023/05/08 07:03:35;;;;;;;;;21.00;15.75;;;;;16.86;61.42;101613.00;4916939;28;46519;-64
2023/05/08 07:06:01;;;;;;;;;14.80;14.40;;;;;16.78;61.66;101620.56;4916577;28;45360;-64
2023/05/08 07:08:28;;;;;;;;;13.00;13.00;;;;;16.83;61.51;101619.00;4917033;28;45360;-62
2023/05/08 07:10:54;;;;;;;;;19.80;18.00;;;;;16.81;61.23;101622.00;4917521;28;45354;-63
2023/05/08 07:13:20;;;;;;;;;15.25;14.75;;;;;16.84;61.16;101629.00;4905119;28;46031;-63
2023/05/08 07:15:46;;;;;;;;;15.40;15.40;;;;;16.80;60.93;101628.63;4928701;28;45463;-63
2023/05/08 07:18:12;;;;;;;;;13.50;13.50;;;;;16.81;61.16;101633.09;4921148;28;45783;-62
2023/05/08 07:20:37;;;;;;;;;15.50;12.75;;;;;16.83;61.04;101630.94;4939083;28;45689;-62
2023/05/08 07:23:03;;;;;;;;;13.25;12.50;;;;;16.73;61.23;101636.19;4998227;28;46511;-62
2023/05/08 07:25:28;;;;;;;;;15.00;13.25;;;;;16.61;61.02;101638.88;4913900;28;45798;-63
2023/05/08 07:27:54;;;;;;;;;10.25;9.75;;;;;16.53;62.15;101651.13;4917323;28;45420;-63
2023/05/08 07:30:20;;;;;;;;;13.75;11.25;;;;;16.51;61.89;101643.06;4911912;28;45607;-62
2023/05/08 07:32:45;;;;;;;;;11.25;11.00;;;;;16.65;61.59;101645.69;4940691;28;47675;-62
2023/05/08 07:35:11;;;;;;;;;18.25;16.25;;;;;16.58;61.47;101645.75;4929796;28;46047;-63
2023/05/08 07:37:38;;;;;;;;;11.40;10.40;;;;;16.59;61.48;101646.59;4916585;28;45492;-62
2023/05/08 07:40:03;;;;;;;;;14.20;13.60;;;;;16.67;61.16;101643.50;4947872;28;45718;-61
2023/05/08 07:42:29;;;;;;;;;14.75;14.00;;;;;16.78;61.34;101655.75;5014442;28;47489;-62
2023/05/08 07:44:54;;;;;;;;;14.25;12.50;;;;;16.80;61.17;101653.56;5015117;28;45550;-62
2023/05/08 07:47:20;;;;;;;;;12.75;10.25;;;;;16.69;61.67;101660.75;4998587;28;45460;-62
2023/05/08 07:49:45;;;;;;;;;16.25;14.00;;;;;16.77;61.18;101651.28;4932203;28;45423;-63
2023/05/08 07:52:11;;;;;;;;;14.50;14.50;;;;;16.98;60.66;101657.44;4933364;28;46148;-61
2023/05/08 07:54:36;;;;;;;;;13.25;13.00;;;;;17.08;60.41;101643.91;4931958;28;45465;-64
2023/05/08 07:57:02;;;;;;;;;17.00;12.50;;;;;17.25;59.71;101649.63;4933771;28;45305;-61
2023/05/08 07:59:28;;;;;;;;;14.25;13.00;;;;;17.37;59.69;101654.38;4929665;28;45398;-59
2023/05/08 08:01:53;;;;;;;;;14.25;10.75;;;;;17.42;59.14;101648.97;4931695;28;46118;-60
2023/05/08 08:04:19;;;;;;;;;10.00;10.00;;;;;17.43;58.95;101642.31;4922560;28;45334;-62
2023/05/08 08:06:44;;;;;;;;;13.75;12.50;;;;;17.51;58.92;101660.56;4914641;28;45387;-61
2023/05/08 08:09:10;;;;;;;;;14.00;13.25;;;;;17.48;58.84;101661.88;5009426;28;45362;-61
2023/05/08 08:11:35;;;;;;;;;13.00;13.00;;;;;17.38;59.20;101651.34;5031618;28;47675;-61
2023/05/08 08:14:01;;;;;;;;;12.00;12.00;;;;;17.53;59.01;101673.13;4920968;28;45370;-59
2023/05/08 08:16:26;;;;;;;;;11.00;10.25;;;;;17.54;59.14;101666.50;4915894;28;45427;-60
2023/05/08 08:18:51;;;;;;;;;14.00;13.00;;;;;17.60;58.81;101671.09;4915039;28;45627;-59
2023/05/08 08:21:18;;;;;;;;;10.75;10.75;;;;;17.67;58.93;101671.00;4912779;28;46220;-61
2023/05/08 08:23:43;;;;;;;;;13.40;13.00;;;;;17.67;58.61;101670.16;4911528;28;45796;-60
2023/05/08 08:26:09;;;;;;;;;16.50;15.75;;;;;17.75;58.62;101661.47;4913801;28;45541;-60
2023/05/08 08:28:34;;;;;;;;;14.25;12.75;;;;;17.81;58.65;101662.44;4914229;28;45406;-60
2023/05/08 08:30:59;;;;;;;;;12.75;11.75;;;;;17.89;58.10;101668.50;4913990;28;46374;-60
2023/05/08 08:33:27;;;;;;;;;13.00;13.00;;;;;17.72;58.53;101671.13;4927868;28;45500;-60
2023/05/08 08:35:53;;;;;;;;;14.60;12.20;;;;;17.78;58.57;101654.59;4912915;28;45412;-59
2023/05/08 08:38:18;;;;;;;;;13.25;12.00;;;;;17.89;58.12;101662.94;4922184;28;45735;-61
2023/05/08 08:40:44;;;;;;;;;15.00;14.00;;;;;18.00;58.27;101672.38;4948298;28;47264;-63
2023/05/08 08:43:09;;;;;;;;;13.00;10.75;;;;;18.05;57.91;101676.38;5029249;28;45465;-63
2023/05/08 08:45:38;;;;;;;;;13.00;10.75;;;;;17.97;57.79;101653.44;5012893;28;45269;-64
2023/05/08 08:48:04;;;;;;;;;13.20;10.00;;;;;18.12;57.56;101666.03;5015079;28;45585;-62
2023/05/08 08:50:31;;;;;;;;;14.00;12.75;;;;;18.01;57.68;101659.34;5047471;28;45605;-63
2023/05/08 08:53:00;;;;;;;;;12.40;12.00;;;;;18.05;57.36;101673.59;5015416;28;45476;-64
2023/05/08 08:55:26;;;;;;;;;12.60;12.00;;;;;18.05;57.84;101668.06;5015313;28;45725;-64
2023/05/08 08:58:05;;;;;;;;;13.50;9.75;;;;;18.15;57.89;101671.13;5015851;28;45953;-63
2023/05/08 09:00:31;;;;;;;;;13.60;12.20;;;;;18.17;57.86;101673.63;5030917;28;46330;-62
2023/05/08 09:02:57;;;;;;;;;9.75;9.00;;;;;18.21;57.96;101672.94;5015521;28;45400;-63
2023/05/08 09:05:23;;;;;;;;;13.25;11.50;;;;;18.22;57.59;101671.00;5014072;28;45373;-62
2023/05/08 09:07:48;;;;;;;;;13.20;11.00;;;;;18.17;57.70;101673.63;5015586;28;45582;-63
2023/05/08 09:10:14;;;;;;;;;16.00;11.00;;;;;18.02;57.37;101680.47;5014810;28;45255;-63
2023/05/08 09:12:40;;;;;;;;;13.50;11.25;;;;;17.90;57.94;101672.13;4905121;28;46890;-64
2023/05/08 09:15:06;;;;;;;;;12.60;10.40;;;;;17.97;58.09;101680.34;4913363;28;45442;-63
2023/05/08 09:17:32;;;;;;;;;14.25;12.50;;;;;17.96;57.97;101678.66;4914169;28;45759;-63
2023/05/08 09:19:57;;;;;;;;;10.25;10.25;;;;;17.95;58.58;101672.28;4958984;28;46052;-63
2023/05/08 09:22:23;;;;;;;;;13.50;11.75;;;;;17.96;58.00;101679.50;4953460;28;45368;-63
2023/05/08 09:24:58;;;;;;;;;11.25;10.25;;;;;17.87;58.13;101673.47;4928148;28;45452;-63
2023/05/08 09:27:27;;;;;;;;;12.40;11.80;;;;;17.93;57.97;101679.97;4913869;28;45501;-62
2023/05/08 09:30:06;;;;;;;;;15.20;11.40;;;;;17.91;58.28;101675.75;4913103;28;45660;-64
2023/05/08 09:32:32;;;;;;;;;12.00;11.00;;;;;17.86;58.38;101669.00;4926546;28;45359;-64
2023/05/08 09:34:58;;;;;;;;;12.00;12.00;;;;;17.94;58.15;101678.06;4937475;28;45827;-62
2023/05/08 09:37:24;;;;;;;;;11.75;11.00;;;;;17.93;58.21;101668.88;4931671;28;45351;-64
2023/05/08 09:39:50;;;;;;;;;11.00;11.00;;;;;17.98;57.76;101666.22;4945967;28;46510;-64
2023/05/08 09:42:15;;;;;;;;;14.75;11.00;;;;;18.04;57.71;101666.38;4901182;28;46870;-63
2023/05/08 09:44:51;;;;;;;;;11.00;11.00;;;;;18.01;56.98;101637.13;4926701;28;45439;-63
2023/05/08 09:47:19;;;;;;;;;12.20;9.80;;;;;18.24;57.19;101646.56;4954145;28;45522;-62
2023/05/08 09:50:00;;;;;;;;;14.80;11.60;;;;;18.40;56.36;101659.75;4959836;28;46277;-63
2023/05/08 09:52:29;;;;;;;;;12.40;11.60;;;;;18.48;56.43;101664.13;4931539;28;45508;-64
2023/05/08 09:54:59;;;;;;;;;13.00;10.60;;;;;18.54;56.55;101659.50;4930729;28;45436;-63
2023/05/08 09:57:29;;;;;;;;;10.60;10.60;;;;;18.57;56.09;101653.44;4930194;28;45333;-61
2023/05/08 10:00:09;;;;;;;;;10.40;10.40;;;;;18.54;56.42;101649.25;4930813;28;46694;-63
2023/05/08 10:02:35;;;;;;;;;10.60;10.40;;;;;18.64;55.98;101639.44;4946134;28;45818;-63
2023/05/08 10:05:01;;;;;;;;;11.20;8.80;;;;;18.66;55.60;101643.66;4914297;28;45942;-63
2023/05/08 10:07:33;;;;;;;;;12.40;11.00;;;;;18.76;55.57;101647.72;4926861;28;45658;-63
2023/05/08 10:10:03;;;;;;;;;10.20;9.80;;;;;18.78;55.42;101635.28;4928604;28;46784;-62
2023/05/08 10:12:29;;;;;;;;;11.40;10.20;;;;;18.63;54.84;101626.63;4918317;28;45267;-64
2023/05/08 10:14:55;;;;;;;;;8.50;8.50;;;;;18.80;55.44;101630.31;4912649;28;45794;-64
2023/05/08 10:17:25;;;;;;;;;12.00;12.00;;;;;18.86;54.83;101622.06;4912466;28;45274;-66
2023/05/08 10:19:57;;;;;;;;;12.80;8.80;;;;;18.95;55.23;101626.19;4927463;28;47802;-64
2023/05/08 10:22:23;;;;;;;;;11.80;9.20;;;;;19.05;54.60;101629.19;4915627;28;45772;-66
2023/05/08 10:24:49;;;;;;;;;9.80;9.80;;;;;19.09;54.09;101624.81;4932033;28;45526;-63
2023/05/08 10:27:44;;;;;;;;;10.40;10.20;;;;;19.20;53.96;101634.19;4930624;28;45614;-65
2023/05/08 10:30:10;;;;;;;;;12.80;10.60;;;;;19.26;53.32;101618.44;4945882;28;45427;-66
2023/05/08 10:32:42;;;;;;;;;9.50;9.50;;;;;19.43;53.87;101623.22;4963291;28;45750;-66
2023/05/08 10:35:09;;;;;;;;;9.00;9.00;;;;;19.50;53.42;101608.03;4930146;28;45502;-67
2023/05/08 10:37:35;;;;;;;;;7.60;7.60;;;;;19.72;52.91;101621.22;4963134;28;45518;-68
2023/05/08 10:40:01;;;;;;;;;7.50;7.50;;;;;19.90;52.55;101613.69;4946116;28;46934;-63
2023/05/08 10:42:26;;;;;;;;;9.75;9.00;;;;;20.01;52.02;101598.03;4930515;28;45692;-62
2023/05/08 10:44:52;;;;;;;;;11.75;11.00;;;;;20.14;51.66;101611.59;4911452;28;45503;-62
2023/05/08 10:47:38;;;;;;;;;13.00;12.00;;;;;20.18;52.06;101609.16;4933567;28;45381;-64
2023/05/08 10:50:27;;;;;;;;;11.00;10.00;;;;;20.10;51.92;101595.63;4956052;28;45592;-61
2023/05/08 10:53:06;;;;;;;;;9.60;9.00;;;;;20.30;51.91;101592.31;4958517;28;45758;-61
2023/05/08 10:55:33;;;;;;;;;11.20;9.40;;;;;20.43;51.27;101593.88;4924097;28;45831;-61
2023/05/08 10:58:02;;;;;;;;;8.80;8.80;;;;;20.55;50.84;101600.16;4926026;28;45412;-61
2023/05/08 11:00:31;;;;;;;;;10.20;8.80;;;;;20.57;50.91;101597.97;4927379;28;45983;-60
2023/05/08 11:03:04;;;;;;;;;9.60;8.40;;;;;20.60;51.17;101579.88;4917192;28;45952;-66
2023/05/08 11:05:30;;;;;;;;;11.00;10.20;;;;;20.71;50.50;101576.09;4920363;28;45394;-66
2023/05/08 11:07:56;;;;;;;;;11.25;9.50;;;;;20.82;50.59;101573.44;4911719;28;45945;-65
2023/05/08 11:10:22;;;;;;;;;12.00;7.40;;;;;20.92;50.24;101569.97;4926705;28;47445;-66
2023/05/08 11:12:50;;;;;;;;;8.75;7.75;;;;;20.95;51.00;101566.63;4928100;28;45421;-65